Weather at Arnold Palmer Regional Airport

Public forecast

Using degrees Fahrenheit for public forecast. Weather courtesy of forecast.io.

Current aviation weather report (METAR) for Arnold Palmer Regional Airport

2024/07/22 22:50 (retrieved 12 minutes ago)

KLBE 222250Z 00000KT 10SM OVC015 20/20 A3000

Aviation forecast (TAF) for Arnold Palmer Regional Airport

2024/07/22 18:22 Ammendment (retrieved 5 hours ago)

TAF AMD KLBE 221820Z 2218/2318 VRB06KT 6SM -RA OVC040 TEMPO 2218/2221 5SM -TSRA BKN025CB FM222300 VRB03KT P6SM BKN035 FM230700 00000KT 2SM BR BKN050 FM231300 24003KT P6SM BKN050